Time;durP1;ratioP1;P1;durP2;ratioP2;P2;SDS_P1;SDS_P2;PMS_P1;PMS_P2;Temp;Humidity;BMP_temperature;BMP_pressure;BME280_temperature;BME280_humidity;BME280_pressure;Samples;Min_cycle;Max_cycle;Signal;HPM_P1;HPM_P2
2023/03/12 00:00:33;;;;;;;11.38;4.45;;;1.00;99.90;;;;;;4991680;28;20042;-76
2023/03/12 00:02:58;;;;;;;7.03;4.50;;;1.00;99.90;;;;;;4981154;28;20035;-76
2023/03/12 00:05:27;;;;;;;9.18;4.88;;;1.00;99.90;;;;;;4984467;28;20033;-75
2023/03/12 00:07:52;;;;;;;7.60;4.85;;;1.00;99.90;;;;;;4956278;28;20034;-75
2023/03/12 00:10:21;;;;;;;9.90;4.25;;;1.00;99.90;;;;;;4971629;28;20096;-75
2023/03/12 00:12:46;;;;;;;7.85;4.22;;;1.00;99.90;;;;;;4964713;28;20035;-77
2023/03/12 00:15:12;;;;;;;11.32;4.93;;;1.10;99.90;;;;;;4970809;28;20025;-77
2023/03/12 00:17:37;;;;;;;5.90;3.95;;;1.10;99.90;;;;;;4958437;28;20643;-77
2023/03/12 00:20:05;;;;;;;7.18;4.47;;;1.10;99.90;;;;;;4959097;28;20041;-77
2023/03/12 00:22:31;;;;;;;12.73;7.65;;;1.00;99.90;;;;;;4955491;28;20111;-77
2023/03/12 00:24:57;;;;;;;10.93;5.75;;;0.90;99.90;;;;;;4975064;28;20042;-77
2023/03/12 00:27:23;;;;;;;6.63;4.57;;;0.80;99.90;;;;;;4968073;28;20056;-77
2023/03/12 00:29:48;;;;;;;11.85;4.80;;;0.80;99.90;;;;;;4969614;28;20041;-77
2023/03/12 00:32:14;;;;;;;6.13;4.38;;;0.80;99.90;;;;;;4954140;28;20038;-78
2023/03/12 00:34:40;;;;;;;13.55;4.93;;;0.80;99.90;;;;;;4978471;28;20031;-77
2023/03/12 00:37:06;;;;;;;11.65;4.90;;;0.80;99.90;;;;;;4983541;28;20504;-77
2023/03/12 00:39:32;;;;;;;8.80;4.97;;;0.70;99.90;;;;;;4956632;28;20390;-77
2023/03/12 00:41:58;;;;;;;7.07;4.55;;;0.80;99.90;;;;;;4961955;28;20029;-76
2023/03/12 00:44:23;;;;;;;8.88;4.80;;;0.80;99.90;;;;;;4972870;28;20104;-76
2023/03/12 00:46:49;;;;;;;8.73;5.30;;;0.80;99.90;;;;;;4951330;28;20033;-76
2023/03/12 00:49:14;;;;;;;8.25;4.15;;;0.80;99.90;;;;;;4957867;28;20026;-77
2023/03/12 00:51:40;;;;;;;12.32;4.35;;;0.90;99.90;;;;;;4973526;28;20040;-76
2023/03/12 00:54:06;;;;;;;7.57;4.40;;;1.00;99.90;;;;;;5003852;28;20030;-76
2023/03/12 00:56:31;;;;;;;5.78;3.85;;;1.10;99.90;;;;;;4966366;28;20105;-76
2023/03/12 00:58:57;;;;;;;6.43;4.15;;;1.20;99.90;;;;;;4972104;28;20030;-76
2023/03/12 01:01:23;;;;;;;9.07;4.35;;;1.20;99.90;;;;;;4955876;28;20839;-77
2023/03/12 01:03:50;;;;;;;10.18;4.32;;;1.20;99.90;;;;;;4968401;28;20030;-76
2023/03/12 01:06:16;;;;;;;6.10;4.07;;;1.20;99.90;;;;;;4955850;28;20093;-77
2023/03/12 01:08:41;;;;;;;8.18;4.30;;;1.20;99.90;;;;;;4973281;28;20038;-77
2023/03/12 01:11:11;;;;;;;8.35;3.83;;;1.20;99.90;;;;;;4981802;28;20048;-77
2023/03/12 01:13:36;;;;;;;7.30;3.55;;;1.20;99.90;;;;;;4965134;28;20572;-77
2023/03/12 01:16:02;;;;;;;9.75;3.67;;;1.20;99.90;;;;;;4973984;28;20042;-76
2023/03/12 01:18:28;;;;;;;7.47;3.70;;;1.20;99.90;;;;;;4958005;28;20031;-76
2023/03/12 01:20:53;;;;;;;5.47;2.97;;;1.30;99.90;;;;;;4968176;28;20037;-77
2023/03/12 01:23:19;;;;;;;6.53;3.60;;;1.30;99.90;;;;;;4973713;28;20092;-77
2023/03/12 01:25:46;;;;;;;9.07;3.90;;;1.20;99.90;;;;;;4972140;28;20034;-77
2023/03/12 01:28:11;;;;;;;7.57;3.38;;;1.10;99.90;;;;;;4992042;28;20049;-77
2023/03/12 01:30:37;;;;;;;7.38;2.40;;;1.10;99.90;;;;;;4987273;28;20077;-76
2023/03/12 01:33:03;;;;;;;7.88;3.47;;;1.10;99.90;;;;;;4991295;28;20521;-76
2023/03/12 01:35:28;;;;;;;6.85;3.40;;;1.20;99.90;;;;;;4965464;28;20116;-76
2023/03/12 01:37:54;;;;;;;5.35;3.40;;;1.20;99.90;;;;;;4973798;28;20037;-76
2023/03/12 01:40:24;;;;;;;6.95;3.42;;;1.20;99.90;;;;;;4952988;28;20744;-77
2023/03/12 01:42:56;;;;;;;5.30;3.50;;;1.20;99.90;;;;;;4951838;28;20034;-77
2023/03/12 01:45:59;;;;;;;4.13;2.50;;;1.20;99.90;;;;;;4974386;28;20033;-77
2023/03/12 01:48:26;;;;;;;5.50;3.03;;;1.20;99.90;;;;;;4998459;28;20044;-77
2023/03/12 01:50:51;;;;;;;7.35;3.35;;;1.20;99.90;;;;;;4973892;28;20037;-77
2023/03/12 01:53:17;;;;;;;8.45;2.83;;;1.30;99.90;;;;;;4977159;28;20102;-76
2023/03/12 01:55:43;;;;;;;7.18;3.50;;;1.20;99.90;;;;;;4969697;28;20210;-76
2023/03/12 01:58:08;;;;;;;5.28;2.70;;;1.30;99.90;;;;;;4972568;28;20131;-76
2023/03/12 02:00:34;;;;;;;5.90;2.50;;;1.30;99.90;;;;;;4983650;28;20096;-77
2023/03/12 02:03:01;;;;;;;3.55;2.60;;;1.40;99.90;;;;;;4975940;28;20550;-77
2023/03/12 02:05:32;;;;;;;4.88;2.80;;;1.50;99.90;;;;;;4974301;28;20501;-77
2023/03/12 02:07:58;;;;;;;4.07;2.53;;;1.50;99.90;;;;;;4969592;28;20034;-77
2023/03/12 02:10:23;;;;;;;8.70;2.90;;;1.60;99.90;;;;;;4957137;28;20033;-77
2023/03/12 02:12:49;;;;;;;7.25;3.13;;;1.50;99.90;;;;;;4962457;28;20067;-77
2023/03/12 02:15:14;;;;;;;10.57;2.78;;;1.50;99.90;;;;;;4989171;28;20127;-77
2023/03/12 02:17:40;;;;;;;4.18;2.20;;;1.40;99.90;;;;;;4960705;28;20042;-77
2023/03/12 02:20:09;;;;;;;5.50;2.35;;;1.30;99.90;;;;;;4973285;28;20049;-76
2023/03/12 02:22:35;;;;;;;6.93;2.75;;;1.30;99.90;;;;;;4997828;28;20577;-77
2023/03/12 02:25:40;;;;;;;5.15;2.25;;;1.40;99.90;;;;;;4961387;28;20113;-76
2023/03/12 02:28:08;;;;;;;3.35;2.25;;;1.60;99.90;;;;;;4954009;28;20045;-77
2023/03/12 02:30:34;;;;;;;4.25;2.08;;;1.50;99.90;;;;;;4954360;28;20057;-77
2023/03/12 02:33:01;;;;;;;5.88;2.25;;;1.50;99.90;;;;;;4969173;28;20049;-77
2023/03/12 02:35:26;;;;;;;7.20;2.47;;;1.50;99.90;;;;;;4989311;28;20124;-76
2023/03/12 02:37:53;;;;;;;4.35;2.22;;;1.60;99.90;;;;;;4971015;28;20032;-77
2023/03/12 02:40:25;;;;;;;3.67;2.10;;;1.60;99.90;;;;;;4974134;28;20049;-77
2023/03/12 02:42:51;;;;;;;7.03;1.90;;;1.70;99.90;;;;;;4973010;28;20041;-76
2023/03/12 02:45:17;;;;;;;4.55;2.20;;;1.70;99.90;;;;;;4949417;28;20034;-77
2023/03/12 02:47:43;;;;;;;3.83;1.77;;;1.70;99.90;;;;;;4959972;28;20081;-77
2023/03/12 02:50:09;;;;;;;9.35;1.90;;;1.70;99.90;;;;;;4968080;28;20034;-77
2023/03/12 02:52:36;;;;;;;3.78;2.08;;;1.60;99.90;;;;;;4959019;28;20054;-77
2023/03/12 02:55:03;;;;;;;3.33;1.67;;;1.60;99.90;;;;;;4973391;28;20034;-77
2023/03/12 02:57:28;;;;;;;4.53;1.83;;;1.70;99.90;;;;;;4959983;28;20557;-76
2023/03/12 02:59:54;;;;;;;5.78;1.92;;;1.70;99.90;;;;;;4954191;28;20046;-76
2023/03/12 03:02:19;;;;;;;5.45;2.00;;;1.70;99.90;;;;;;4993615;28;20091;-77
2023/03/12 03:04:45;;;;;;;5.57;2.53;;;1.80;99.90;;;;;;4972117;28;20450;-77
2023/03/12 03:07:11;;;;;;;3.55;1.73;;;1.80;99.90;;;;;;4985182;28;20041;-77
2023/03/12 03:09:37;;;;;;;2.72;1.40;;;1.80;99.90;;;;;;4988054;28;20125;-77
2023/03/12 03:12:02;;;;;;;3.80;1.70;;;1.90;99.90;;;;;;5002569;28;20076;-78
2023/03/12 03:14:28;;;;;;;3.28;1.45;;;1.80;99.90;;;;;;4958768;28;20091;-78
2023/03/12 03:16:53;;;;;;;1.77;1.30;;;1.80;99.90;;;;;;4974534;28;20040;-77
2023/03/12 03:19:19;;;;;;;5.75;1.98;;;1.80;99.90;;;;;;4989783;28;20112;-77
2023/03/12 03:21:45;;;;;;;4.35;1.48;;;1.80;99.90;;;;;;4983441;28;20035;-78
2023/03/12 03:24:10;;;;;;;3.15;1.33;;;1.90;99.90;;;;;;4971956;28;20485;-78
2023/03/12 03:26:36;;;;;;;2.42;1.67;;;1.90;99.90;;;;;;4973456;28;20069;-78
2023/03/12 03:29:01;;;;;;;6.70;1.77;;;1.80;99.90;;;;;;4985678;28;20027;-78
2023/03/12 03:31:27;;;;;;;2.45;1.35;;;1.80;99.90;;;;;;4985872;28;20026;-77
2023/03/12 03:33:52;;;;;;;4.05;1.50;;;1.80;99.90;;;;;;4960005;28;20509;-76
2023/03/12 03:36:18;;;;;;;2.22;1.30;;;1.90;99.90;;;;;;4979285;28;20026;-76
2023/03/12 03:38:48;;;;;;;2.45;1.45;;;1.90;99.90;;;;;;4968904;28;20109;-78
2023/03/12 03:41:17;;;;;;;5.30;1.45;;;1.80;99.90;;;;;;4976672;28;20080;-78
2023/03/12 03:43:42;;;;;;;2.92;1.55;;;1.90;99.90;;;;;;4982159;28;20038;-77
2023/03/12 03:46:10;;;;;;;7.65;1.58;;;1.90;99.90;;;;;;4953954;28;20038;-77
2023/03/12 03:48:35;;;;;;;2.35;1.58;;;1.90;99.90;;;;;;4971560;28;20046;-77
2023/03/12 03:51:02;;;;;;;5.43;2.03;;;1.90;99.90;;;;;;4960617;28;20038;-77
2023/03/12 03:53:27;;;;;;;4.25;1.50;;;1.90;99.90;;;;;;4969248;28;20061;-77
2023/03/12 03:55:53;;;;;;;7.22;1.90;;;1.90;99.90;;;;;;4967218;28;20034;-77
2023/03/12 03:58:18;;;;;;;2.70;1.38;;;1.90;99.90;;;;;;4970085;28;20126;-77
2023/03/12 04:00:44;;;;;;;4.22;2.05;;;2.00;99.90;;;;;;4958847;28;20056;-77
2023/03/12 04:03:10;;;;;;;5.03;1.92;;;2.00;99.90;;;;;;4970775;28;20442;-77
2023/03/12 04:05:36;;;;;;;5.47;2.15;;;2.00;99.90;;;;;;4955479;28;20174;-77
2023/03/12 04:08:02;;;;;;;4.22;1.90;;;1.90;99.90;;;;;;4971661;28;20040;-77
2023/03/12 04:10:28;;;;;;;11.07;2.35;;;2.00;99.90;;;;;;4989835;28;20030;-77
2023/03/12 04:12:53;;;;;;;4.82;1.55;;;2.10;99.90;;;;;;4966092;28;20112;-78
2023/03/12 04:15:19;;;;;;;4.93;1.48;;;2.10;99.90;;;;;;4967946;28;20490;-77
2023/03/12 04:17:44;;;;;;;2.22;1.55;;;2.10;99.90;;;;;;4968789;28;20121;-77
2023/03/12 04:20:11;;;;;;;3.72;1.15;;;2.00;99.90;;;;;;4962178;28;20045;-77
2023/03/12 04:22:36;;;;;;;5.32;1.92;;;2.10;99.90;;;;;;4989657;28;20054;-77
2023/03/12 04:25:02;;;;;;;3.90;1.73;;;2.10;99.90;;;;;;4973247;28;20084;-77
2023/03/12 04:27:28;;;;;;;6.45;1.50;;;2.10;99.90;;;;;;4983535;28;20033;-77
2023/03/12 04:29:53;;;;;;;3.97;1.60;;;2.10;99.90;;;;;;4970548;28;20092;-76
2023/03/12 04:32:19;;;;;;;2.50;1.40;;;2.20;99.90;;;;;;4983489;28;20121;-77
2023/03/12 04:34:44;;;;;;;3.00;1.30;;;2.10;99.90;;;;;;4970634;28;20037;-78
2023/03/12 04:37:12;;;;;;;3.90;1.58;;;2.10;99.90;;;;;;4965300;28;20034;-78
2023/03/12 04:39:38;;;;;;;2.25;0.82;;;2.20;99.90;;;;;;4956547;28;20510;-78
2023/03/12 04:42:04;;;;;;;5.88;1.42;;;2.20;99.90;;;;;;4959621;28;20752;-77
2023/03/12 04:44:30;;;;;;;5.53;1.80;;;2.20;99.90;;;;;;4970593;28;20041;-79
2023/03/12 04:46:55;;;;;;;5.63;1.50;;;2.20;99.90;;;;;;4970153;28;20030;-77
2023/03/12 04:49:21;;;;;;;3.97;1.23;;;2.20;99.90;;;;;;4986260;28;20049;-78
2023/03/12 04:51:46;;;;;;;3.20;1.52;;;2.20;99.90;;;;;;4988646;28;20018;-78
2023/03/12 04:54:12;;;;;;;3.85;1.23;;;2.30;99.90;;;;;;4994300;28;20058;-78
2023/03/12 04:56:38;;;;;;;5.53;1.75;;;2.30;99.90;;;;;;4994469;28;20049;-78
2023/03/12 04:59:04;;;;;;;7.07;1.20;;;2.30;99.90;;;;;;4989790;28;20027;-78
2023/03/12 05:01:31;;;;;;;3.58;1.50;;;2.30;99.90;;;;;;4971986;28;20084;-78
2023/03/12 05:03:57;;;;;;;10.45;1.88;;;2.30;99.90;;;;;;4978285;28;20034;-77
2023/03/12 05:06:22;;;;;;;2.25;1.30;;;2.40;99.90;;;;;;4963766;28;20045;-77
2023/03/12 05:08:48;;;;;;;7.65;1.70;;;2.40;99.90;;;;;;4987492;28;20393;-77
2023/03/12 05:11:14;;;;;;;4.95;1.30;;;2.40;99.90;;;;;;4972577;28;20486;-78
2023/03/12 05:13:39;;;;;;;4.50;1.60;;;2.40;99.90;;;;;;4979668;28;20064;-78
2023/03/12 05:16:05;;;;;;;4.03;1.65;;;2.40;99.90;;;;;;4973384;28;20042;-77
2023/03/12 05:18:31;;;;;;;3.97;1.77;;;2.40;99.90;;;;;;4991375;28;20053;-78
2023/03/12 05:21:07;;;;;;;3.30;1.80;;;2.40;99.90;;;;;;4962081;28;20057;-78
2023/03/12 05:23:33;;;;;;;3.45;1.88;;;2.40;99.90;;;;;;4965105;28;20455;-78
2023/03/12 05:25:58;;;;;;;3.78;1.67;;;2.50;99.90;;;;;;4971161;28;20102;-78
2023/03/12 05:28:27;;;;;;;7.57;2.22;;;2.40;99.90;;;;;;4981049;28;20393;-78
2023/03/12 05:30:56;;;;;;;5.13;2.08;;;2.50;99.90;;;;;;4973782;28;20034;-78
2023/03/12 05:33:22;;;;;;;3.05;1.70;;;2.40;99.90;;;;;;4964992;28;20045;-78
2023/03/12 05:35:47;;;;;;;7.25;1.35;;;2.40;99.90;;;;;;4977322;28;20060;-77
2023/03/12 05:38:13;;;;;;;3.08;1.58;;;2.50;99.90;;;;;;4966898;28;20485;-78
2023/03/12 05:40:38;;;;;;;6.72;1.55;;;2.50;99.90;;;;;;4990838;28;20050;-78
2023/03/12 05:43:04;;;;;;;6.00;1.65;;;2.50;99.90;;;;;;4971755;28;20026;-78
2023/03/12 05:45:29;;;;;;;6.15;2.17;;;2.50;99.90;;;;;;4989225;28;20045;-78
2023/03/12 05:47:55;;;;;;;1.75;1.23;;;2.60;99.90;;;;;;4978528;28;20033;-77
2023/03/12 05:50:20;;;;;;;2.47;1.20;;;2.60;99.90;;;;;;4959159;28;20033;-78
2023/03/12 05:52:46;;;;;;;8.10;1.55;;;2.60;99.90;;;;;;4959522;28;20037;-78
2023/03/12 05:55:12;;;;;;;2.10;1.23;;;2.60;99.90;;;;;;4990957;28;20109;-78
2023/03/12 05:57:37;;;;;;;3.45;1.35;;;2.60;99.90;;;;;;4988846;28;20022;-78
2023/03/12 06:00:03;;;;;;;2.33;1.40;;;2.60;99.90;;;;;;4986875;28;20069;-78
2023/03/12 06:02:29;;;;;;;6.57;1.85;;;2.60;99.90;;;;;;4971372;28;20757;-78
2023/03/12 06:04:57;;;;;;;6.78;1.67;;;2.60;99.90;;;;;;4961223;28;20113;-78
2023/03/12 06:07:23;;;;;;;5.63;1.60;;;2.60;99.90;;;;;;4959878;28;20062;-78
2023/03/12 06:09:48;;;;;;;5.78;1.70;;;2.60;99.90;;;;;;4995808;28;20453;-77
2023/03/12 06:12:14;;;;;;;7.43;1.80;;;2.70;99.90;;;;;;4979878;28;20513;-78
2023/03/12 06:14:39;;;;;;;9.02;1.40;;;2.70;99.90;;;;;;4975306;28;20037;-77
2023/03/12 06:17:05;;;;;;;3.10;1.17;;;2.70;99.90;;;;;;4975069;28;20037;-78
2023/03/12 06:19:30;;;;;;;7.13;2.10;;;2.60;99.90;;;;;;4975977;28;20085;-77
2023/03/12 06:21:56;;;;;;;2.22;1.17;;;2.60;99.90;;;;;;4956417;28;20037;-78
2023/03/12 06:24:22;;;;;;;6.43;1.67;;;2.60;99.90;;;;;;4957967;28;20397;-77
2023/03/12 06:26:47;;;;;;;5.43;1.75;;;2.70;99.90;;;;;;4972787;28;20034;-78
2023/03/12 06:29:13;;;;;;;4.60;1.67;;;2.60;99.90;;;;;;4978312;28;20482;-78
2023/03/12 06:31:40;;;;;;;5.28;1.50;;;2.60;99.90;;;;;;4974385;28;20030;-78
2023/03/12 06:34:06;;;;;;;4.57;1.33;;;2.60;99.90;;;;;;4977414;28;20030;-77
2023/03/12 06:36:32;;;;;;;5.03;1.88;;;2.70;99.90;;;;;;4985744;28;20045;-77
2023/03/12 06:38:57;;;;;;;6.10;2.25;;;2.70;99.90;;;;;;4954443;28;20189;-77
2023/03/12 06:41:23;;;;;;;4.13;2.03;;;2.70;99.90;;;;;;4980582;28;20056;-78
2023/03/12 06:43:48;;;;;;;7.82;2.15;;;2.70;99.90;;;;;;4982558;28;20040;-77
2023/03/12 06:46:16;;;;;;;4.75;1.42;;;2.80;99.90;;;;;;4988644;28;20125;-77
2023/03/12 06:48:42;;;;;;;5.03;1.65;;;2.80;99.90;;;;;;4956908;28;20052;-78
2023/03/12 06:51:08;;;;;;;2.70;1.52;;;2.90;99.90;;;;;;4957203;28;20498;-78
2023/03/12 06:53:34;;;;;;;3.72;2.00;;;2.90;99.90;;;;;;4988440;28;20042;-78
2023/03/12 06:55:59;;;;;;;3.05;1.27;;;2.90;99.90;;;;;;4987984;28;20033;-78
2023/03/12 06:58:25;;;;;;;3.25;2.00;;;2.90;99.90;;;;;;4976919;28;20061;-78
2023/03/12 07:00:51;;;;;;;8.77;2.42;;;2.90;99.90;;;;;;4988661;28;20496;-77
2023/03/12 07:03:16;;;;;;;3.92;1.77;;;2.90;99.90;;;;;;4975716;28;20108;-78
2023/03/12 07:05:45;;;;;;;3.53;1.77;;;2.90;99.90;;;;;;4974518;28;20094;-77
2023/03/12 07:08:11;;;;;;;4.55;1.80;;;2.90;99.90;;;;;;4987112;28;20504;-77
2023/03/12 07:10:37;;;;;;;3.47;1.65;;;2.90;99.90;;;;;;4983644;28;20115;-77
2023/03/12 07:13:02;;;;;;;4.95;2.50;;;3.00;99.90;;;;;;4988119;28;20029;-78
2023/03/12 07:15:28;;;;;;;2.60;1.25;;;3.00;99.90;;;;;;4995411;28;20034;-78
2023/03/12 07:17:53;;;;;;;4.20;1.98;;;3.00;99.90;;;;;;4958974;28;20041;-78
2023/03/12 07:20:20;;;;;;;6.75;2.75;;;3.00;99.90;;;;;;4971555;28;20042;-78
2023/03/12 07:22:46;;;;;;;6.30;2.53;;;3.00;99.90;;;;;;4972391;28;20026;-80
2023/03/12 07:25:11;;;;;;;3.80;2.15;;;3.00;99.90;;;;;;4976475;28;20404;-77
2023/03/12 07:27:37;;;;;;;7.93;2.10;;;3.00;99.90;;;;;;4983395;28;20042;-79
2023/03/12 07:30:03;;;;;;;5.82;1.63;;;3.10;99.90;;;;;;4991879;28;20117;-78
2023/03/12 07:32:29;;;;;;;4.85;1.92;;;3.10;99.90;;;;;;4989597;28;20049;-79
2023/03/12 07:34:54;;;;;;;5.22;2.33;;;3.20;99.90;;;;;;4970316;28;20066;-79
2023/03/12 07:37:21;;;;;;;5.93;2.13;;;3.20;99.90;;;;;;4964085;28;20021;-79
2023/03/12 07:39:50;;;;;;;6.70;2.15;;;3.20;99.90;;;;;;4974089;28;20810;-78
2023/03/12 07:42:15;;;;;;;6.53;1.85;;;3.20;99.90;;;;;;4986877;28;20049;-78
2023/03/12 07:44:41;;;;;;;2.72;1.65;;;3.20;99.90;;;;;;4969028;28;20434;-77
2023/03/12 07:47:06;;;;;;;2.00;1.55;;;3.30;99.90;;;;;;4973712;28;20041;-78
2023/03/12 07:49:32;;;;;;;4.85;2.30;;;3.30;99.90;;;;;;4973172;28;20030;-78
2023/03/12 07:51:58;;;;;;;6.93;2.35;;;3.30;99.90;;;;;;4973426;28;20382;-78
2023/03/12 07:54:29;;;;;;;5.72;1.83;;;3.30;99.90;;;;;;4957282;28;20022;-78
2023/03/12 07:56:57;;;;;;;3.78;1.65;;;3.40;99.90;;;;;;4960606;28;20085;-78
2023/03/12 07:59:25;;;;;;;7.88;2.85;;;3.30;99.90;;;;;;4957400;28;20025;-77
2023/03/12 08:01:51;;;;;;;4.97;2.15;;;3.40;99.90;;;;;;4972281;28;20036;-78
2023/03/12 08:04:16;;;;;;;8.15;2.67;;;3.40;99.90;;;;;;4987629;28;20026;-77
2023/03/12 08:06:42;;;;;;;4.75;1.95;;;3.40;99.90;;;;;;4956807;28;20390;-77
2023/03/12 08:09:08;;;;;;;4.97;1.45;;;3.50;99.90;;;;;;4979846;28;20410;-77
2023/03/12 08:11:35;;;;;;;8.25;2.92;;;3.50;99.90;;;;;;4980796;28;20022;-77
2023/03/12 08:14:04;;;;;;;9.40;3.10;;;3.50;99.90;;;;;;4974856;28;20029;-77
2023/03/12 08:16:29;;;;;;;7.57;2.72;;;3.60;99.90;;;;;;4968563;28;20030;-77
2023/03/12 08:18:55;;;;;;;3.88;2.05;;;3.60;99.90;;;;;;4962851;28;20116;-77
2023/03/12 08:21:20;;;;;;;7.90;2.40;;;3.70;99.90;;;;;;4986170;28;20124;-77
2023/03/12 08:23:46;;;;;;;9.23;2.67;;;3.70;99.90;;;;;;4982357;28;20034;-78
2023/03/12 08:26:12;;;;;;;9.10;3.22;;;3.80;99.90;;;;;;4986349;28;20073;-78
2023/03/12 08:28:37;;;;;;;3.58;1.85;;;3.80;99.90;;;;;;4955377;28;20077;-77
2023/03/12 08:31:03;;;;;;;3.80;2.03;;;3.80;99.90;;;;;;4975372;28;20487;-78
2023/03/12 08:33:30;;;;;;;7.88;4.45;;;3.80;99.90;;;;;;4953523;28;20058;-78
2023/03/12 08:35:55;;;;;;;6.90;2.65;;;3.90;99.90;;;;;;4972380;28;20174;-78
2023/03/12 08:38:21;;;;;;;6.57;2.60;;;4.00;99.90;;;;;;4954313;28;20557;-77
2023/03/12 08:40:53;;;;;;;8.25;2.22;;;4.00;99.90;;;;;;4970843;28;20093;-78
2023/03/12 08:43:18;;;;;;;4.28;2.03;;;4.00;99.90;;;;;;4976743;28;20034;-78
2023/03/12 08:45:44;;;;;;;5.07;2.35;;;4.10;99.90;;;;;;4964865;28;20050;-79
2023/03/12 08:48:09;;;;;;;5.57;3.30;;;4.20;99.90;;;;;;4987847;28;20036;-77
2023/03/12 08:50:35;;;;;;;7.13;3.50;;;4.20;99.90;;;;;;4975994;28;20038;-77
2023/03/12 08:53:00;;;;;;;6.82;2.63;;;4.30;99.90;;;;;;4957692;28;20321;-77
2023/03/12 08:55:29;;;;;;;4.38;2.35;;;4.40;99.90;;;;;;4987127;28;20370;-77
2023/03/12 08:57:55;;;;;;;7.30;3.08;;;4.50;99.90;;;;;;4990293;28;20540;-78
2023/03/12 09:00:21;;;;;;;1.73;1.23;;;4.50;99.90;;;;;;4960775;28;20049;-76
2023/03/12 09:02:47;;;;;;;4.65;1.70;;;4.60;99.90;;;;;;4958569;28;20025;-76
2023/03/12 09:05:12;;;;;;;2.60;1.40;;;4.70;99.90;;;;;;4974570;28;20042;-76
2023/03/12 09:07:38;;;;;;;1.85;0.95;;;4.70;99.90;;;;;;4968538;28;20030;-76
2023/03/12 09:10:04;;;;;;;2.97;1.33;;;4.90;99.90;;;;;;4966373;28;20033;-76
2023/03/12 09:12:30;;;;;;;10.77;2.42;;;4.90;99.90;;;;;;4966987;28;20450;-76
2023/03/12 09:14:56;;;;;;;4.47;2.20;;;4.90;99.90;;;;;;4965096;28;20085;-76
2023/03/12 09:17:21;;;;;;;4.68;2.75;;;5.10;99.90;;;;;;4971273;28;20026;-76
2023/03/12 09:19:47;;;;;;;1.90;1.35;;;5.10;99.90;;;;;;4974345;28;20033;-75
2023/03/12 09:22:12;;;;;;;4.35;1.50;;;5.00;99.90;;;;;;4966984;28;20057;-75
2023/03/12 09:24:38;;;;;;;4.95;1.92;;;5.00;99.90;;;;;;4958831;28;20054;-75
2023/03/12 09:27:03;;;;;;;1.63;1.17;;;5.10;99.90;;;;;;4955741;28;20449;-75
2023/03/12 09:29:32;;;;;;;7.05;2.03;;;5.00;99.90;;;;;;4984591;28;20033;-75
2023/03/12 09:31:58;;;;;;;4.13;2.40;;;5.10;99.90;;;;;;4984567;28;20057;-78
2023/03/12 09:34:23;;;;;;;2.70;0.98;;;5.20;99.90;;;;;;4975401;28;20389;-77
2023/03/12 09:36:49;;;;;;;5.88;1.73;;;5.20;99.90;;;;;;4985277;28;20030;-75
2023/03/12 09:39:15;;;;;;;2.40;1.40;;;5.30;99.90;;;;;;4971768;28;20058;-75
2023/03/12 09:41:41;;;;;;;1.95;1.00;;;5.30;99.90;;;;;;4957112;28;20042;-77
2023/03/12 09:44:31;;;;;;;4.05;1.60;;;5.20;99.90;;;;;;4974692;28;20030;-78
2023/03/12 09:47:14;;;;;;;3.75;1.90;;;5.20;99.90;;;;;;4977534;28;20441;-77
2023/03/12 09:49:44;;;;;;;1.48;1.38;;;5.30;99.90;;;;;;4992841;28;20035;-77
2023/03/12 09:52:19;;;;;;;3.70;1.30;;;5.20;99.90;;;;;;4978102;28;20604;-77
2023/03/12 09:55:09;;;;;;;4.68;1.50;;;5.20;99.90;;;;;;4986311;28;20212;-77
2023/03/12 09:57:35;;;;;;;2.65;1.45;;;5.20;99.90;;;;;;4993822;28;20536;-77
2023/03/12 10:00:00;;;;;;;6.28;2.13;;;5.20;99.90;;;;;;4977113;28;20034;-78
2023/03/12 10:02:26;;;;;;;1.65;0.88;;;5.30;99.90;;;;;;4971472;28;20100;-77
2023/03/12 10:05:10;;;;;;;2.22;1.13;;;5.30;99.90;;;;;;5003643;28;20029;-77
2023/03/12 10:07:56;;;;;;;2.08;1.70;;;5.40;99.90;;;;;;4975576;28;20121;-77
2023/03/12 10:10:49;;;;;;;1.30;1.13;;;5.50;99.90;;;;;;4976449;28;20112;-78
2023/03/12 10:13:41;;;;;;;4.22;2.05;;;5.40;99.90;;;;;;4988921;28;20114;-77
2023/03/12 10:16:09;;;;;;;2.75;1.70;;;5.40;99.90;;;;;;4965333;28;20505;-78
2023/03/12 10:19:26;;;;;;;2.60;1.27;;;5.40;99.90;;;;;;5005306;28;20030;-78
2023/03/12 10:22:05;;;;;;;2.58;1.70;;;5.40;99.90;;;;;;4962815;28;20037;-80
2023/03/12 10:25:11;;;;;;;2.83;1.23;;;5.40;99.90;;;;;;4993748;28;20038;-80
2023/03/12 10:27:37;;;;;;;3.20;1.88;;;5.50;99.90;;;;;;4980924;28;20034;-80
2023/03/12 10:30:11;;;;;;;1.65;1.15;;;5.50;99.90;;;;;;4959535;28;20029;-80
2023/03/12 10:32:45;;;;;;;2.03;1.38;;;5.60;99.90;;;;;;4964591;28;20425;-80
2023/03/12 10:35:19;;;;;;;1.50;1.25;;;5.70;99.90;;;;;;4974098;28;20066;-80
2023/03/12 10:37:49;;;;;;;1.58;1.23;;;5.70;99.90;;;;;;4950027;28;20022;-80
2023/03/12 10:40:21;;;;;;;1.58;1.02;;;5.80;99.90;;;;;;4952282;28;20494;-81
2023/03/12 10:42:47;;;;;;;1.38;0.82;;;5.80;99.90;;;;;;4976440;28;20039;-80
2023/03/12 10:45:37;;;;;;;4.65;1.95;;;5.80;99.90;;;;;;4955842;28;20121;-78
2023/03/12 10:48:07;;;;;;;3.30;1.45;;;5.80;99.90;;;;;;4989820;28;20113;-78
2023/03/12 10:50:36;;;;;;;2.72;1.23;;;5.80;99.90;;;;;;4972555;28;20561;-80
2023/03/12 10:53:26;;;;;;;1.55;1.40;;;5.90;99.90;;;;;;4951385;28;20521;-78
2023/03/12 10:56:01;;;;;;;1.30;1.10;;;6.10;99.90;;;;;;4974632;28;20034;-77
2023/03/12 10:58:32;;;;;;;1.55;1.10;;;6.10;99.90;;;;;;4971152;28;20070;-80
2023/03/12 11:01:00;;;;;;;0.93;0.85;;;6.10;99.90;;;;;;4966184;28;20031;-78
2023/03/12 11:03:25;;;;;;;2.72;1.85;;;5.90;99.90;;;;;;4993869;28;20120;-78
2023/03/12 11:05:52;;;;;;;1.75;1.58;;;5.90;99.90;;;;;;4959868;28;20465;-79
2023/03/12 11:08:25;;;;;;;0.82;0.63;;;6.00;99.90;;;;;;4977046;28;20103;-79
2023/03/12 11:10:51;;;;;;;2.35;1.58;;;6.00;99.90;;;;;;4965375;28;20520;-78
2023/03/12 11:13:27;;;;;;;3.13;1.98;;;5.90;99.90;;;;;;4977445;28;20034;-78
2023/03/12 11:15:53;;;;;;;1.83;1.17;;;6.00;99.90;;;;;;4972403;28;20040;-79
2023/03/12 11:18:24;;;;;;;3.33;2.03;;;6.00;99.90;;;;;;4973244;28;20041;-78
2023/03/12 11:20:51;;;;;;;4.32;2.55;;;6.00;99.90;;;;;;4973790;28;20041;-79
2023/03/12 11:23:20;;;;;;;3.95;1.15;;;6.00;99.90;;;;;;4973279;28;20030;-79
2023/03/12 11:25:55;;;;;;;4.18;1.05;;;6.00;99.90;;;;;;4968487;28;20040;-78
2023/03/12 11:28:24;;;;;;;5.43;2.50;;;6.00;99.90;;;;;;4974774;28;20113;-78
2023/03/12 11:30:50;;;;;;;2.42;1.40;;;6.10;99.90;;;;;;4969214;28;20095;-78
2023/03/12 11:33:16;;;;;;;1.83;1.52;;;6.20;99.90;;;;;;4952257;28;20549;-79
2023/03/12 11:36:41;;;;;;;1.17;1.00;;;6.30;99.90;;;;;;4973911;28;20022;-78
2023/03/12 11:39:13;;;;;;;2.70;1.48;;;6.30;99.90;;;;;;4882111;29;20095;-78
2023/03/12 11:42:20;;;;;;;4.30;2.17;;;6.40;99.90;;;;;;4903095;29;20631;-78
2023/03/12 11:45:02;;;;;;;3.17;1.95;;;6.60;99.90;;;;;;4941944;28;20029;-77
2023/03/12 11:47:37;;;;;;;2.63;1.67;;;6.70;99.90;;;;;;4982135;28;20040;-79
2023/03/12 11:50:54;;;;;;;3.85;2.55;;;7.00;99.90;;;;;;4971120;28;20018;-78
2023/03/12 11:53:41;;;;;;;5.38;4.25;;;7.10;99.90;;;;;;4972207;28;20455;-78
2023/03/12 11:56:23;;;;;;;4.07;2.90;;;7.30;99.90;;;;;;4972223;28;20150;-79
2023/03/12 11:58:54;;;;;;;5.15;2.92;;;7.40;99.90;;;;;;4973845;28;20502;-78
2023/03/12 12:01:35;;;;;;;4.35;2.17;;;7.50;99.90;;;;;;4972100;28;20683;-78
2023/03/12 12:04:27;;;;;;;3.53;2.63;;;7.80;99.90;;;;;;5002337;28;20073;-78
2023/03/12 12:07:14;;;;;;;2.78;2.50;;;7.90;99.90;;;;;;4968859;28;20030;-78
2023/03/12 12:10:02;;;;;;;5.30;3.53;;;8.00;99.90;;;;;;4986239;28;20049;-79
2023/03/12 12:13:05;;;;;;;5.43;3.90;;;8.00;99.90;;;;;;4990766;28;20041;-79
2023/03/12 12:15:49;;;;;;;3.60;1.88;;;8.40;99.90;;;;;;4993324;28;20705;-78
2023/03/12 12:18:56;;;;;;;4.43;3.03;;;8.10;99.90;;;;;;4989827;28;20037;-78
2023/03/12 12:21:43;;;;;;;4.15;2.60;;;8.40;99.90;;;;;;4979646;28;20038;-79
2023/03/12 12:24:33;;;;;;;6.82;5.05;;;8.50;99.90;;;;;;4990525;28;20022;-80
2023/03/12 12:27:20;;;;;;;4.88;3.30;;;8.40;99.90;;;;;;4991269;28;20128;-79
2023/03/12 12:30:04;;;;;;;5.28;3.33;;;8.90;99.90;;;;;;5003351;28;20030;-79
2023/03/12 12:33:02;;;;;;;10.27;4.57;;;8.90;99.90;;;;;;5003434;28;20489;-79
2023/03/12 12:35:37;;;;;;;7.90;5.13;;;8.80;99.90;;;;;;4989957;28;20030;-79
2023/03/12 12:38:13;;;;;;;8.30;4.28;;;8.60;99.90;;;;;;4959114;28;20091;-79
2023/03/12 12:40:47;;;;;;;5.38;3.78;;;8.70;99.90;;;;;;4952754;28;20042;-78
2023/03/12 12:43:34;;;;;;;8.68;4.95;;;8.60;99.90;;;;;;4955879;28;20482;-79
2023/03/12 12:46:03;;;;;;;8.70;4.15;;;8.60;99.90;;;;;;5006868;28;20030;-79
2023/03/12 12:48:35;;;;;;;9.90;6.47;;;8.60;99.90;;;;;;4953599;28;20490;-78
2023/03/12 12:51:01;;;;;;;9.88;5.45;;;8.40;99.90;;;;;;4973236;28;20389;-79
2023/03/12 12:53:33;;;;;;;13.60;7.05;;;8.30;99.90;;;;;;4975319;28;20486;-79
2023/03/12 12:56:20;;;;;;;6.07;4.05;;;8.20;99.90;;;;;;4988300;28;20034;-79
2023/03/12 12:58:54;;;;;;;5.20;2.80;;;8.30;99.90;;;;;;4972334;28;20034;-78
2023/03/12 13:01:20;;;;;;;4.97;3.33;;;8.20;99.90;;;;;;4984114;28;20084;-78
2023/03/12 13:03:46;;;;;;;11.57;7.05;;;8.30;99.90;;;;;;4955632;28;20033;-79
2023/03/12 13:06:11;;;;;;;10.63;5.40;;;8.30;99.90;;;;;;4955115;28;20038;-79